createdAt,value
2023-04-26T00:02:27.293Z,2.90
2023-04-26T00:04:56.662Z,2.70
2023-04-26T00:07:26.862Z,2.97
2023-04-26T00:09:55.002Z,2.90
2023-04-26T00:12:23.080Z,2.97
2023-04-26T00:14:51.078Z,2.80
2023-04-26T00:17:19.458Z,3.00
2023-04-26T00:19:48.204Z,2.97
2023-04-26T00:22:16.321Z,2.47
2023-04-26T00:24:45.819Z,3.20
2023-04-26T00:27:13.867Z,3.13
2023-04-26T00:29:42.191Z,2.93
2023-04-26T00:32:10.697Z,3.30
2023-04-26T00:34:39.543Z,3.07
2023-04-26T00:37:08.050Z,2.90
2023-04-26T00:39:36.294Z,3.00
2023-04-26T00:42:06.146Z,3.20
2023-04-26T00:44:34.266Z,3.23
2023-04-26T00:47:02.727Z,3.20
2023-04-26T00:49:31.121Z,2.93
2023-04-26T00:51:59.454Z,3.40
2023-04-26T00:54:27.777Z,2.90
2023-04-26T00:56:56.156Z,3.27
2023-04-26T00:59:26.260Z,2.57
2023-04-26T01:01:54.734Z,2.60
2023-04-26T01:04:26.254Z,2.33
2023-04-26T01:06:55.079Z,3.10
2023-04-26T01:09:23.413Z,2.40
2023-04-26T01:11:53.622Z,2.80
2023-04-26T01:14:23.043Z,3.00
2023-04-26T01:16:52.899Z,2.93
2023-04-26T01:19:21.365Z,2.67
2023-04-26T01:21:49.724Z,3.20
2023-04-26T01:24:19.198Z,3.03
2023-04-26T01:26:47.288Z,3.40
2023-04-26T01:29:19.389Z,3.30
2023-04-26T01:31:47.893Z,2.93
2023-04-26T01:34:16.631Z,3.10
2023-04-26T01:36:44.722Z,4.20
2023-04-26T01:39:12.720Z,3.53
2023-04-26T01:41:42.361Z,3.07
2023-04-26T01:44:10.519Z,3.13
2023-04-26T01:46:38.908Z,3.20
2023-04-26T01:49:07.182Z,2.93
2023-04-26T01:51:35.456Z,3.63
2023-04-26T01:54:03.435Z,2.77
2023-04-26T01:56:31.404Z,3.10
2023-04-26T01:59:01.075Z,3.17
2023-04-26T02:01:29.129Z,3.73
2023-04-26T02:03:57.172Z,2.93
2023-04-26T02:06:25.245Z,3.33
2023-04-26T02:08:54.394Z,2.87
2023-04-26T02:11:23.081Z,3.13
2023-04-26T02:13:51.089Z,3.43
2023-04-26T02:16:21.246Z,3.53
2023-04-26T02:18:49.748Z,2.83
2023-04-26T02:21:18.539Z,3.07
2023-04-26T02:23:46.721Z,3.07
2023-04-26T02:26:15.496Z,3.57
2023-04-26T02:28:43.644Z,2.97
2023-04-26T02:31:12.240Z,3.00
2023-04-26T02:33:41.694Z,3.50
2023-04-26T02:36:10.173Z,3.53
2023-04-26T02:38:38.238Z,2.90
2023-04-26T02:41:06.377Z,3.30
2023-04-26T02:43:34.741Z,2.90
2023-04-26T02:46:02.717Z,3.67
2023-04-26T02:48:30.626Z,2.90
2023-04-26T02:51:00.276Z,3.37
2023-04-26T02:53:28.366Z,2.80
2023-04-26T02:55:56.634Z,3.20
2023-04-26T02:58:24.748Z,3.20
2023-04-26T03:00:54.638Z,3.40
2023-04-26T03:03:23.051Z,3.73
2023-04-26T03:05:51.564Z,3.23
2023-04-26T03:08:20.979Z,3.30
2023-04-26T03:10:48.900Z,3.57
2023-04-26T03:13:16.950Z,3.00
2023-04-26T03:15:46.903Z,2.93
2023-04-26T03:18:14.878Z,3.23
2023-04-26T03:20:43.621Z,2.90
2023-04-26T03:23:11.554Z,3.20
2023-04-26T03:25:40.953Z,3.40
2023-04-26T03:28:09.096Z,3.30
2023-04-26T03:30:37.136Z,3.10
2023-04-26T03:33:05.301Z,3.07
2023-04-26T03:35:33.371Z,3.13
2023-04-26T03:38:01.555Z,3.23
2023-04-26T03:40:29.885Z,3.17
2023-04-26T03:42:59.343Z,3.13
2023-04-26T03:45:27.721Z,3.20
2023-04-26T03:47:56.733Z,3.13
2023-04-26T03:50:24.900Z,3.50
2023-04-26T03:52:53.094Z,2.30
2023-04-26T03:55:21.514Z,3.30
2023-04-26T03:57:49.958Z,2.90
2023-04-26T04:00:19.392Z,3.27
2023-04-26T04:02:47.802Z,2.60
2023-04-26T04:05:16.046Z,2.93
2023-04-26T04:07:44.061Z,3.07
2023-04-26T04:10:12.543Z,2.80
2023-04-26T04:12:40.624Z,2.80
2023-04-26T04:15:09.940Z,2.77
2023-04-26T04:17:39.311Z,2.90
2023-04-26T04:20:08.801Z,2.70
2023-04-26T04:22:39.001Z,2.60
2023-04-26T04:25:07.899Z,3.10
2023-04-26T04:27:36.866Z,3.20
2023-04-26T04:30:07.321Z,2.83
2023-04-26T04:32:35.713Z,2.87
2023-04-26T04:35:05.654Z,2.80
2023-04-26T04:37:34.840Z,2.70
2023-04-26T04:40:03.290Z,2.77
2023-04-26T04:42:32.531Z,2.60
2023-04-26T04:45:00.658Z,2.77
2023-04-26T04:47:28.979Z,2.67
2023-04-26T04:49:57.280Z,2.77
2023-04-26T04:52:27.185Z,2.90
2023-04-26T04:54:56.095Z,2.43
2023-04-26T04:57:24.229Z,2.70
2023-04-26T04:59:52.240Z,2.70
2023-04-26T05:02:21.056Z,2.50
2023-04-26T05:04:49.448Z,2.83
2023-04-26T05:07:18.441Z,2.80
2023-04-26T05:09:47.861Z,2.80
2023-04-26T05:12:15.961Z,2.73
2023-04-26T05:14:43.987Z,2.50
2023-04-26T05:17:12.341Z,2.63
2023-04-26T05:19:40.469Z,2.93
2023-04-26T05:22:08.570Z,2.47
2023-04-26T05:24:36.771Z,2.50
2023-04-26T05:27:06.432Z,2.73
2023-04-26T05:29:34.477Z,2.47
2023-04-26T05:32:02.858Z,2.90
2023-04-26T05:34:31.325Z,2.80
2023-04-26T05:36:59.452Z,2.60
2023-04-26T05:39:27.507Z,2.97
2023-04-26T05:41:55.648Z,3.10
2023-04-26T05:44:25.466Z,3.27
2023-04-26T05:46:53.631Z,2.73
2023-04-26T05:49:21.857Z,2.53
2023-04-26T05:51:49.941Z,2.80
2023-04-26T05:54:18.099Z,3.20
2023-04-26T05:56:46.348Z,2.77
2023-04-26T05:59:14.433Z,2.53
2023-04-26T06:01:43.781Z,2.47
2023-04-26T06:04:12.070Z,2.53
2023-04-26T06:06:40.514Z,3.07
2023-04-26T06:09:08.639Z,3.00
2023-04-26T06:11:36.960Z,2.80
2023-04-26T06:14:05.678Z,2.20
2023-04-26T06:16:33.643Z,2.70
2023-04-26T06:19:03.212Z,2.83
2023-04-26T06:21:31.960Z,2.70
2023-04-26T06:24:00.186Z,2.50
2023-04-26T06:26:28.258Z,2.53
2023-04-26T06:28:56.546Z,2.70
2023-04-26T06:31:24.638Z,3.00
2023-04-26T06:33:53.151Z,2.93
2023-04-26T06:36:22.769Z,2.77
2023-04-26T06:38:50.889Z,3.00
2023-04-26T06:41:18.871Z,2.60
2023-04-26T06:43:46.876Z,2.57
2023-04-26T06:46:15.131Z,3.17
2023-04-26T06:48:43.376Z,3.03
2023-04-26T06:51:11.418Z,2.87
2023-04-26T06:53:41.575Z,2.80
2023-04-26T06:56:10.241Z,2.97
2023-04-26T06:58:38.441Z,2.50
2023-04-26T07:01:08.628Z,3.07
2023-04-26T07:03:36.796Z,2.80
2023-04-26T07:06:05.763Z,2.97
2023-04-26T07:08:34.183Z,2.37
2023-04-26T07:11:03.760Z,2.93
2023-04-26T07:13:32.016Z,2.60
2023-04-26T07:15:59.992Z,2.33
2023-04-26T07:18:28.045Z,2.60
2023-04-26T07:20:56.134Z,2.20
2023-04-26T07:23:24.210Z,2.90
2023-04-26T07:25:52.237Z,2.37
2023-04-26T07:28:21.580Z,2.67
2023-04-26T07:30:49.521Z,2.43
2023-04-26T07:33:17.589Z,2.17
2023-04-26T07:35:45.962Z,1.87
2023-04-26T07:38:19.741Z,2.37
2023-04-26T07:40:47.651Z,2.30
2023-04-26T07:43:16.467Z,2.37
2023-04-26T07:45:45.944Z,2.40
2023-04-26T07:48:14.189Z,2.30
2023-04-26T07:50:42.741Z,2.30
2023-04-26T07:53:10.857Z,2.60
2023-04-26T07:55:38.863Z,2.33
2023-04-26T07:58:07.073Z,2.27
2023-04-26T08:00:38.613Z,2.57
2023-04-26T08:03:08.350Z,2.20
2023-04-26T08:05:37.251Z,2.30
2023-04-26T08:08:05.854Z,2.43
2023-04-26T08:10:34.269Z,2.17
2023-04-26T08:13:03.529Z,2.65
2023-04-26T08:15:32.528Z,2.83
2023-04-26T08:18:00.613Z,2.55
2023-04-26T08:20:30.157Z,2.28
2023-04-26T08:22:58.894Z,2.33
2023-04-26T08:25:27.532Z,2.33
2023-04-26T08:27:55.516Z,2.40
2023-04-26T08:30:23.843Z,2.45
2023-04-26T08:32:51.916Z,2.20
2023-04-26T08:35:20.132Z,2.25
2023-04-26T08:37:49.486Z,2.60
2023-04-26T08:40:23.782Z,1.92
2023-04-26T08:42:53.603Z,2.47
2023-04-26T08:45:22.342Z,2.10
2023-04-26T08:47:51.582Z,1.93
2023-04-26T08:50:22.266Z,2.00
2023-04-26T08:52:53.498Z,2.80
2023-04-26T08:55:22.058Z,2.60
2023-04-26T08:57:51.673Z,2.15
2023-04-26T09:00:21.381Z,2.40
2023-04-26T09:02:52.498Z,2.03
2023-04-26T09:05:24.401Z,2.00
2023-04-26T09:07:59.128Z,2.77
2023-04-26T09:10:27.234Z,2.60
2023-04-26T09:12:55.801Z,2.30
2023-04-26T09:15:25.261Z,1.93
2023-04-26T09:17:53.913Z,1.63
2023-04-26T09:20:24.406Z,2.00
2023-04-26T09:23:04.841Z,2.30
2023-04-26T09:25:33.787Z,2.03
2023-04-26T09:28:03.856Z,2.27
2023-04-26T09:30:39.506Z,1.87
2023-04-26T09:33:09.397Z,1.90
2023-04-26T09:35:39.152Z,2.40
2023-04-26T09:38:12.984Z,2.20
2023-04-26T09:40:44.274Z,2.20
2023-04-26T09:43:14.065Z,2.23
2023-04-26T09:45:47.573Z,2.20
2023-04-26T09:48:17.356Z,1.90
2023-04-26T09:50:46.637Z,2.27
2023-04-26T09:53:32.036Z,2.13
2023-04-26T09:56:09.032Z,2.27
2023-04-26T09:58:38.968Z,2.70
2023-04-26T10:01:08.874Z,2.50
2023-04-26T10:03:37.702Z,2.58
2023-04-26T10:06:06.671Z,2.45
2023-04-26T10:08:37.245Z,3.00
2023-04-26T10:11:07.680Z,2.40
2023-04-26T10:13:36.281Z,2.60
2023-04-26T10:16:06.527Z,2.13
2023-04-26T10:18:35.839Z,1.95
2023-04-26T10:21:10.598Z,1.58
2023-04-26T10:23:41.547Z,1.60
2023-04-26T10:26:48.210Z,1.37
2023-04-26T10:29:16.569Z,1.60
2023-04-26T10:32:06.660Z,1.43
2023-04-26T10:34:36.211Z,1.70
2023-04-26T10:37:12.534Z,2.00
2023-04-26T10:39:43.426Z,2.43
2023-04-26T10:42:26.574Z,1.73
2023-04-26T10:44:55.722Z,2.20
2023-04-26T10:47:32.446Z,1.90
2023-04-26T10:50:06.211Z,2.00
2023-04-26T10:52:35.194Z,1.67
2023-04-26T10:55:06.289Z,1.80
2023-04-26T10:57:51.723Z,1.90
2023-04-26T11:00:38.944Z,1.50
2023-04-26T11:03:08.898Z,1.60
2023-04-26T11:05:54.558Z,1.40
2023-04-26T11:08:27.164Z,1.52
2023-04-26T11:11:10.047Z,1.50
2023-04-26T11:13:39.428Z,1.20
2023-04-26T11:16:08.875Z,1.60
2023-04-26T11:18:39.111Z,1.60
2023-04-26T11:21:08.043Z,1.27
2023-04-26T11:23:36.521Z,1.75
2023-04-26T11:26:08.478Z,1.67
2023-04-26T11:28:38.188Z,2.30
2023-04-26T11:31:07.454Z,1.50
2023-04-26T11:33:35.810Z,2.20
2023-04-26T11:36:04.688Z,2.08
2023-04-26T11:38:32.653Z,1.60
2023-04-26T11:41:02.899Z,2.33
2023-04-26T11:43:36.643Z,1.88
2023-04-26T11:46:05.832Z,1.73
2023-04-26T11:48:35.724Z,1.77
2023-04-26T11:51:05.735Z,1.92
2023-04-26T11:53:37.489Z,1.87
2023-04-26T11:56:06.480Z,1.50
2023-04-26T11:58:35.921Z,1.43
2023-04-26T12:01:03.889Z,1.00
2023-04-26T12:03:35.268Z,1.10
2023-04-26T12:06:03.871Z,1.10
2023-04-26T12:08:34.332Z,1.37
2023-04-26T12:11:03.633Z,1.73
2023-04-26T12:13:32.897Z,1.60
2023-04-26T12:16:22.429Z,1.33
2023-04-26T12:18:54.231Z,1.40
2023-04-26T12:21:22.477Z,1.60
2023-04-26T12:23:50.999Z,1.73
2023-04-26T12:26:20.457Z,1.80
2023-04-26T12:28:48.649Z,1.60
2023-04-26T12:31:18.041Z,1.73
2023-04-26T12:33:46.082Z,1.40
2023-04-26T12:36:14.635Z,1.48
2023-04-26T12:38:42.730Z,2.03
2023-04-26T12:41:10.724Z,1.95
2023-04-26T12:43:38.849Z,2.10
2023-04-26T12:46:06.881Z,2.30
2023-04-26T12:48:36.359Z,2.00
2023-04-26T12:51:05.101Z,1.33
2023-04-26T12:53:33.737Z,1.92
2023-04-26T12:56:01.736Z,1.52
2023-04-26T12:58:29.810Z,1.48
2023-04-26T13:00:57.919Z,1.65
2023-04-26T13:03:26.365Z,2.88
2023-04-26T13:05:56.029Z,1.23
2023-04-26T13:08:24.369Z,1.30
2023-04-26T13:10:52.410Z,1.52
2023-04-26T13:13:26.178Z,1.40
2023-04-26T13:15:57.441Z,1.98
2023-04-26T13:18:25.494Z,1.55
2023-04-26T13:20:54.826Z,1.52
2023-04-26T13:23:23.088Z,1.70
2023-04-26T13:25:51.120Z,1.50
2023-04-26T13:28:19.420Z,1.90
2023-04-26T13:30:47.405Z,1.63
2023-04-26T13:33:15.701Z,1.50
2023-04-26T13:35:43.678Z,1.85
2023-04-26T13:38:13.684Z,1.70
2023-04-26T13:40:41.860Z,2.05
2023-04-26T13:43:09.876Z,1.75
2023-04-26T13:45:37.882Z,1.80
2023-04-26T13:48:06.262Z,1.83
2023-04-26T13:50:34.323Z,2.20
2023-04-26T13:53:02.435Z,2.28
2023-04-26T13:55:31.954Z,2.43
2023-04-26T13:58:00.312Z,1.77
2023-04-26T14:00:28.572Z,1.85
2023-04-26T14:02:58.111Z,2.33
2023-04-26T14:05:26.449Z,1.90
2023-04-26T14:07:55.301Z,2.28
2023-04-26T14:10:23.567Z,1.85
2023-04-26T14:12:53.619Z,2.00
2023-04-26T14:15:22.512Z,2.20
2023-04-26T14:17:51.184Z,1.83
2023-04-26T14:20:19.370Z,2.10
2023-04-26T14:22:48.585Z,1.45
2023-04-26T14:25:16.783Z,1.70
2023-04-26T14:27:44.782Z,1.80
2023-04-26T14:30:14.975Z,2.05
2023-04-26T14:32:43.405Z,2.00
2023-04-26T14:35:11.457Z,1.80
2023-04-26T14:37:39.869Z,1.95
2023-04-26T14:40:09.490Z,1.83
2023-04-26T14:42:37.734Z,1.42
2023-04-26T14:45:06.639Z,1.70
2023-04-26T14:47:36.158Z,1.55
2023-04-26T14:50:04.364Z,1.47
2023-04-26T14:52:35.908Z,1.30
2023-04-26T14:55:04.139Z,1.53
2023-04-26T14:57:32.669Z,1.60
2023-04-26T15:00:06.951Z,1.93
2023-04-26T15:02:36.385Z,1.50
2023-04-26T15:05:05.129Z,1.73
2023-04-26T15:07:33.283Z,1.40
2023-04-26T15:10:01.845Z,1.93
2023-04-26T15:12:30.172Z,1.57
2023-04-26T15:14:58.270Z,1.50
2023-04-26T15:17:26.318Z,1.50
2023-04-26T15:19:56.398Z,1.33
2023-04-26T15:22:25.134Z,1.40
2023-04-26T15:24:53.084Z,1.83
2023-04-26T15:27:21.323Z,1.53
2023-04-26T15:29:49.483Z,1.77
2023-04-26T15:32:17.602Z,1.43
2023-04-26T15:34:45.930Z,1.80
2023-04-26T15:37:15.683Z,1.75
2023-04-26T15:39:43.711Z,1.63
2023-04-26T15:42:12.181Z,1.85
2023-04-26T15:44:40.405Z,1.37
2023-04-26T15:47:08.798Z,1.80
2023-04-26T15:49:36.767Z,2.00
2023-04-26T15:52:05.075Z,1.80
2023-04-26T15:54:34.461Z,1.93
2023-04-26T15:57:03.823Z,2.20
2023-04-26T15:59:33.363Z,2.43
2023-04-26T16:02:01.865Z,2.00
2023-04-26T16:04:30.108Z,1.90
2023-04-26T16:06:58.331Z,1.45
2023-04-26T16:09:26.329Z,1.88
2023-04-26T16:11:55.900Z,2.00
2023-04-26T16:14:24.023Z,1.67
2023-04-26T16:16:52.311Z,2.00
2023-04-26T16:19:20.341Z,2.15
2023-04-26T16:21:48.604Z,1.77
2023-04-26T16:24:16.659Z,1.80
2023-04-26T16:26:44.605Z,2.23
2023-04-26T16:29:14.312Z,2.03
2023-04-26T16:31:42.598Z,2.00
2023-04-26T16:34:10.869Z,1.85
2023-04-26T16:36:38.911Z,2.33
2023-04-26T16:39:07.593Z,2.10
2023-04-26T16:41:35.608Z,1.80
2023-04-26T16:44:03.599Z,1.98
2023-04-26T16:46:33.059Z,1.80
2023-04-26T16:49:01.078Z,1.92
2023-04-26T16:51:29.123Z,2.00
2023-04-26T16:53:57.091Z,2.20
2023-04-26T16:56:25.202Z,2.40
2023-04-26T16:58:53.271Z,2.05
2023-04-26T17:01:21.617Z,2.13
2023-04-26T17:03:52.055Z,2.10
2023-04-26T17:06:20.553Z,2.30
2023-04-26T17:08:48.548Z,2.38
2023-04-26T17:11:17.015Z,2.15
2023-04-26T17:13:45.568Z,2.33
2023-04-26T17:16:13.678Z,2.22
2023-04-26T17:18:41.805Z,2.33
2023-04-26T17:21:11.323Z,2.55
2023-04-26T17:23:39.260Z,2.65
2023-04-26T17:26:07.280Z,2.47
2023-04-26T17:28:35.973Z,2.17
2023-04-26T17:31:04.101Z,2.47
2023-04-26T17:33:32.540Z,2.17
2023-04-26T17:36:01.704Z,2.63
2023-04-26T17:38:31.094Z,2.33
2023-04-26T17:41:00.364Z,2.67
2023-04-26T17:43:28.383Z,2.83
2023-04-26T17:45:56.624Z,3.53
2023-04-26T17:48:24.629Z,4.03
2023-04-26T17:50:53.188Z,3.10
2023-04-26T17:53:21.696Z,3.30
2023-04-26T17:55:53.033Z,3.90
2023-04-26T17:58:21.222Z,2.70
2023-04-26T18:00:50.109Z,3.07
2023-04-26T18:03:20.556Z,2.92
2023-04-26T18:05:48.936Z,3.20
2023-04-26T18:08:16.894Z,2.20
2023-04-26T18:10:46.170Z,2.45
2023-04-26T18:13:18.111Z,2.45
2023-04-26T18:15:46.311Z,2.50
2023-04-26T18:18:14.336Z,1.70
2023-04-26T18:20:42.471Z,2.17
2023-04-26T18:23:10.621Z,1.88
2023-04-26T18:25:38.623Z,2.42
2023-04-26T18:28:08.673Z,2.60
2023-04-26T18:30:38.443Z,3.27
2023-04-26T18:33:06.657Z,2.67
2023-04-26T18:35:34.717Z,2.40
2023-04-26T18:38:02.666Z,2.37
2023-04-26T18:40:30.636Z,2.43
2023-04-26T18:42:58.939Z,2.60
2023-04-26T18:45:27.033Z,2.65
2023-04-26T18:47:56.355Z,2.65
2023-04-26T18:50:24.452Z,3.47
2023-04-26T18:52:52.464Z,2.97
2023-04-26T18:55:20.741Z,2.73
2023-04-26T18:57:48.801Z,2.80
2023-04-26T19:00:17.119Z,2.87
2023-04-26T19:02:45.317Z,2.57
2023-04-26T19:05:15.165Z,2.67
2023-04-26T19:07:44.089Z,4.33
2023-04-26T19:10:12.503Z,3.20
2023-04-26T19:12:40.987Z,3.23
2023-04-26T19:15:09.688Z,3.47
2023-04-26T19:17:37.796Z,4.40
2023-04-26T19:20:09.317Z,3.63
2023-04-26T19:22:38.707Z,3.53
2023-04-26T19:25:07.573Z,3.97
2023-04-26T19:27:35.697Z,3.33
2023-04-26T19:30:03.696Z,3.47
2023-04-26T19:32:31.692Z,2.90
2023-04-26T19:34:59.895Z,2.70
2023-04-26T19:37:28.201Z,2.43
2023-04-26T19:39:57.683Z,2.30
2023-04-26T19:42:25.792Z,2.37
2023-04-26T19:44:53.749Z,2.37
2023-04-26T19:47:21.730Z,3.00
2023-04-26T19:49:51.596Z,2.87
2023-04-26T19:52:19.599Z,2.50
2023-04-26T19:54:47.636Z,2.47
2023-04-26T19:57:17.397Z,2.43
2023-04-26T19:59:45.928Z,2.60
2023-04-26T20:02:14.035Z,2.30
2023-04-26T20:04:42.747Z,2.37
2023-04-26T20:07:11.230Z,2.60
2023-04-26T20:09:39.454Z,2.80
2023-04-26T20:12:08.609Z,2.73
2023-04-26T20:14:38.095Z,2.70
2023-04-26T20:17:06.391Z,2.50
2023-04-26T20:19:34.468Z,2.43
2023-04-26T20:22:02.600Z,2.70
2023-04-26T20:24:30.590Z,2.80
2023-04-26T20:26:58.654Z,2.60
2023-04-26T20:29:26.641Z,2.67
2023-04-26T20:31:56.407Z,2.63
2023-04-26T20:34:24.738Z,2.60
2023-04-26T20:36:52.978Z,2.60
2023-04-26T20:39:21.754Z,2.33
2023-04-26T20:41:49.869Z,2.43
2023-04-26T20:44:17.810Z,3.27
2023-04-26T20:46:46.721Z,2.73
2023-04-26T20:49:16.134Z,2.87
2023-04-26T20:51:44.117Z,3.03
2023-04-26T20:54:12.357Z,2.93
2023-04-26T20:56:40.453Z,3.00
2023-04-26T20:59:09.115Z,3.83
2023-04-26T21:01:37.429Z,3.03
2023-04-26T21:04:05.923Z,3.30
2023-04-26T21:06:35.462Z,3.50
2023-04-26T21:09:04.218Z,3.17
2023-04-26T21:11:32.399Z,3.10
2023-04-26T21:14:00.965Z,3.10
2023-04-26T21:16:29.011Z,2.90
2023-04-26T21:18:57.089Z,2.70
2023-04-26T21:21:27.701Z,4.23
2023-04-26T21:23:57.665Z,3.30
2023-04-26T21:26:25.758Z,2.83
2023-04-26T21:28:53.689Z,2.80
2023-04-26T21:31:21.817Z,3.50
2023-04-26T21:33:50.210Z,3.10
2023-04-26T21:36:18.158Z,3.20
2023-04-26T21:38:46.277Z,3.03
2023-04-26T21:41:15.671Z,3.33
2023-04-26T21:43:43.670Z,2.77
2023-04-26T21:46:12.372Z,2.93
2023-04-26T21:48:40.508Z,3.00
2023-04-26T21:51:08.760Z,3.47
2023-04-26T21:53:36.849Z,3.17
2023-04-26T21:56:06.232Z,2.80
2023-04-26T21:58:35.557Z,3.10
2023-04-26T22:01:10.493Z,3.03
2023-04-26T22:03:39.310Z,2.80
2023-04-26T22:06:09.624Z,2.77
2023-04-26T22:08:38.628Z,3.30
2023-04-26T22:11:07.031Z,2.83
2023-04-26T22:13:36.655Z,2.80
2023-04-26T22:16:05.049Z,3.27
2023-04-26T22:18:33.348Z,2.33
2023-04-26T22:21:01.386Z,3.17
2023-04-26T22:23:31.216Z,3.00
2023-04-26T22:26:00.480Z,3.00
2023-04-26T22:28:28.709Z,2.77
2023-04-26T22:30:58.059Z,3.50
2023-04-26T22:33:26.168Z,3.70
2023-04-26T22:35:57.528Z,2.80
2023-04-26T22:38:25.614Z,3.03
2023-04-26T22:40:53.643Z,3.30
2023-04-26T22:43:21.632Z,3.10
2023-04-26T22:45:49.759Z,3.27
2023-04-26T22:48:19.087Z,2.83
2023-04-26T22:50:49.556Z,3.03
2023-04-26T22:53:17.747Z,3.13
2023-04-26T22:55:45.850Z,3.27
2023-04-26T22:58:13.853Z,3.73
2023-04-26T23:00:41.815Z,3.10
2023-04-26T23:03:09.778Z,2.80
2023-04-26T23:05:39.412Z,3.20
2023-04-26T23:08:08.009Z,3.60
2023-04-26T23:10:36.063Z,2.93
2023-04-26T23:13:06.445Z,3.13
2023-04-26T23:15:34.471Z,3.00
2023-04-26T23:18:02.966Z,2.83
2023-04-26T23:20:31.182Z,3.00
2023-04-26T23:23:00.860Z,2.80
2023-04-26T23:25:28.912Z,2.67
2023-04-26T23:27:57.044Z,3.20
2023-04-26T23:30:25.115Z,3.43
2023-04-26T23:32:53.403Z,3.20
2023-04-26T23:35:21.475Z,3.17
2023-04-26T23:37:52.293Z,2.83
2023-04-26T23:40:21.758Z,2.77
2023-04-26T23:42:49.692Z,2.73
2023-04-26T23:45:19.257Z,2.70
2023-04-26T23:47:47.432Z,3.07
2023-04-26T23:50:15.675Z,3.20
2023-04-26T23:52:43.736Z,3.37
2023-04-26T23:55:12.566Z,3.27
2023-04-26T23:57:42.122Z,3.47
